Time;durP1;ratioP1;P1;durP2;ratioP2;P2;SDS_P1;SDS_P2;PMS_P1;PMS_P2;Temp;Humidity;BMP_temperature;BMP_pressure;BME280_temperature;BME280_humidity;BME280_pressure;Samples;Min_cycle;Max_cycle;Signal;HPM_P1;HPM_P2
2023/05/09 00:00:12;;;;;;;5.57;3.00;;;;;;;12.57;43.21;99903.13;4304386;33;33905;-86
2023/05/09 00:02:40;;;;;;;6.40;3.45;;;;;;;12.33;43.21;99905.34;4315717;33;33601;-87
2023/05/09 00:05:08;;;;;;;5.82;3.10;;;;;;;12.63;42.92;99900.66;4314601;33;34120;-86
2023/05/09 00:07:36;;;;;;;5.55;3.08;;;;;;;12.41;43.50;99906.34;4314692;33;33641;-86
2023/05/09 00:10:04;;;;;;;7.55;3.45;;;;;;;12.51;42.94;99903.06;4314209;33;33974;-87
2023/05/09 00:12:31;;;;;;;6.45;3.47;;;;;;;12.26;42.87;99900.88;4315203;33;34087;-84
2023/05/09 00:14:59;;;;;;;6.32;3.83;;;;;;;11.68;43.81;99898.91;4314579;33;33724;-87
2023/05/09 00:17:27;;;;;;;6.32;3.85;;;;;;;11.99;44.59;99899.53;4300698;33;33461;-86
2023/05/09 00:19:54;;;;;;;5.57;3.10;;;;;;;12.08;43.90;99894.47;4302041;33;33770;-89
2023/05/09 00:22:22;;;;;;;7.12;3.10;;;;;;;12.20;44.25;99898.16;4315488;33;34237;-87
2023/05/09 00:24:50;;;;;;;5.75;3.58;;;;;;;11.87;43.73;99902.78;4314189;33;33435;-86
2023/05/09 00:27:17;;;;;;;5.72;3.47;;;;;;;11.08;44.70;99899.34;4314274;33;33096;-86
2023/05/09 00:29:45;;;;;;;6.60;3.83;;;;;;;10.77;45.98;99897.78;4313678;33;34429;-87
2023/05/09 00:32:14;;;;;;;6.12;4.15;;;;;;;10.80;45.96;99894.41;4315010;33;34702;-86
2023/05/09 00:34:42;;;;;;;7.50;3.47;;;;;;;10.83;46.07;99887.53;4300995;33;34815;-85
2023/05/09 00:37:09;;;;;;;7.55;3.58;;;;;;;11.01;45.69;99888.81;4315206;33;33553;-86
2023/05/09 00:39:37;;;;;;;5.15;3.62;;;;;;;10.57;46.31;99888.63;4314209;33;34690;-88
2023/05/09 00:42:06;;;;;;;7.28;3.78;;;;;;;10.89;45.83;99884.22;4302286;33;34883;-87
2023/05/09 00:44:33;;;;;;;5.80;3.25;;;;;;;11.09;45.73;99888.13;4314798;33;34017;-88
2023/05/09 00:47:01;;;;;;;6.07;3.50;;;;;;;11.05;45.98;99890.62;4301748;33;33464;-88
2023/05/09 00:49:28;;;;;;;5.75;4.03;;;;;;;11.07;45.86;99889.81;4313887;33;33922;-87
2023/05/09 00:51:56;;;;;;;6.43;3.70;;;;;;;10.62;46.66;99880.13;4315606;33;33998;-87
2023/05/09 00:54:24;;;;;;;5.45;3.33;;;;;;;10.94;46.30;99885.19;4300158;33;33944;-88
2023/05/09 00:56:51;;;;;;;8.52;3.65;;;;;;;10.41;47.16;99882.19;4314523;33;33644;-86
2023/05/09 00:59:19;;;;;;;7.22;3.67;;;;;;;10.77;46.27;99881.34;4315008;33;35011;-85
2023/05/09 01:01:47;;;;;;;6.47;3.62;;;;;;;11.01;45.90;99886.22;4314130;33;34725;-87
2023/05/09 01:04:15;;;;;;;5.43;3.67;;;;;;;10.89;46.11;99881.63;4315036;33;33725;-89
2023/05/09 01:07:14;;;;;;;5.87;3.87;;;;;;;10.40;47.05;99880.47;4313752;33;33619;-86
2023/05/09 01:10:08;;;;;;;6.85;3.83;;;;;;;10.87;46.18;99872.91;4314630;33;33981;-86
2023/05/09 01:12:48;;;;;;;7.80;4.40;;;;;;;10.97;46.08;99880.06;4292245;33;34935;-87
2023/05/09 01:15:40;;;;;;;6.43;4.10;;;;;;;11.00;46.05;99884.47;4302831;33;33771;-86
2023/05/09 01:18:12;;;;;;;6.62;4.03;;;;;;;10.92;45.54;99886.87;4302239;33;34309;-88
2023/05/09 01:20:52;;;;;;;6.97;4.03;;;;;;;10.53;46.46;99877.34;4315291;33;34312;-86
2023/05/09 01:23:48;;;;;;;7.18;4.35;;;;;;;10.96;45.92;99886.13;4301731;33;35631;-86
2023/05/09 01:26:25;;;;;;;8.38;4.43;;;;;;;10.79;45.92;99877.06;4313903;33;33923;-87
2023/05/09 01:29:14;;;;;;;6.62;3.90;;;;;;;10.66;46.06;99879.37;4312137;33;33223;-87
2023/05/09 01:31:43;;;;;;;6.45;4.50;;;;;;;10.96;46.08;99876.59;4315048;33;34625;-85
2023/05/09 01:34:13;;;;;;;10.02;4.18;;;;;;;10.83;46.37;99871.09;4314951;33;34172;-86
2023/05/09 01:36:42;;;;;;;8.32;4.18;;;;;;;10.80;46.28;99871.94;4301014;33;34473;-86
2023/05/09 01:39:11;;;;;;;7.22;4.45;;;;;;;11.18;45.65;99871.91;4301748;33;34146;-86
2023/05/09 01:41:39;;;;;;;8.55;4.70;;;;;;;11.35;45.32;99862.72;4301619;33;33906;-86
2023/05/09 01:44:10;;;;;;;6.62;4.35;;;;;;;11.35;45.16;99867.94;4303013;33;33844;-86
2023/05/09 01:46:38;;;;;;;7.65;4.15;;;;;;;10.79;46.18;99864.09;4315357;33;33737;-86
2023/05/09 01:49:07;;;;;;;7.07;4.10;;;;;;;11.13;45.67;99866.59;4302961;33;33052;-85
2023/05/09 01:51:36;;;;;;;8.23;4.80;;;;;;;11.06;46.24;99869.91;4302516;33;34082;-87
2023/05/09 01:54:05;;;;;;;7.18;4.50;;;;;;;11.01;45.67;99861.13;4303374;33;34992;-85
2023/05/09 01:56:35;;;;;;;7.35;4.62;;;;;;;11.04;45.15;99858.63;4303123;33;33940;-88
2023/05/09 01:59:05;;;;;;;6.32;3.55;;;;;;;10.96;46.39;99867.97;4302772;33;34424;-85
2023/05/09 02:01:33;;;;;;;7.72;4.68;;;;;;;10.84;46.33;99862.50;4310728;33;34993;-88
2023/05/09 02:04:02;;;;;;;7.07;4.35;;;;;;;10.89;46.14;99866.06;4301464;33;34244;-85
2023/05/09 02:06:30;;;;;;;8.50;4.93;;;;;;;10.84;47.32;99859.91;4300879;33;33970;-86
2023/05/09 02:08:58;;;;;;;6.60;4.55;;;;;;;11.05;47.16;99862.09;4303287;33;32990;-87
2023/05/09 02:11:25;;;;;;;7.70;4.28;;;;;;;11.17;45.73;99858.06;4303652;33;34772;-88
2023/05/09 02:13:53;;;;;;;8.63;4.32;;;;;;;11.02;46.57;99854.22;4314902;33;33822;-87
2023/05/09 02:16:21;;;;;;;7.20;4.70;;;;;;;10.91;46.54;99848.78;4290447;33;33780;-86
2023/05/09 02:18:49;;;;;;;6.85;4.28;;;;;;;10.88;46.06;99853.94;4302391;33;33545;-86
2023/05/09 02:21:16;;;;;;;5.93;4.20;;;;;;;11.35;46.17;99848.87;4302582;33;34131;-86
2023/05/09 02:23:44;;;;;;;7.30;4.45;;;;;;;11.30;46.13;99854.00;4314935;33;34275;-87
2023/05/09 02:26:13;;;;;;;6.97;4.18;;;;;;;11.13;47.09;99851.00;4316707;33;34183;-88
2023/05/09 02:28:41;;;;;;;6.57;4.40;;;;;;;11.07;47.26;99850.03;4303768;33;32793;-87
2023/05/09 02:31:11;;;;;;;6.80;4.43;;;;;;;11.31;46.92;99853.12;4316598;33;33703;-85
2023/05/09 02:33:40;;;;;;;9.27;4.43;;;;;;;11.40;46.83;99852.44;4290110;33;34191;-85
2023/05/09 02:36:08;;;;;;;8.00;4.75;;;;;;;11.36;46.62;99848.91;4302895;33;33985;-88
2023/05/09 02:38:36;;;;;;;7.00;4.62;;;;;;;11.20;47.00;99852.91;4303122;33;33298;-87
2023/05/09 02:41:03;;;;;;;7.95;4.62;;;;;;;11.47;46.34;99845.66;4316316;33;34502;-86
2023/05/09 02:43:31;;;;;;;7.20;5.00;;;;;;;11.37;46.78;99842.88;4316524;33;33477;-86
2023/05/09 02:45:58;;;;;;;7.57;4.60;;;;;;;11.32;46.77;99847.09;4316166;33;34859;-87
2023/05/09 02:48:26;;;;;;;9.93;4.82;;;;;;;11.03;47.43;99849.09;4316760;33;34319;-86
2023/05/09 02:50:53;;;;;;;7.93;5.62;;;;;;;11.02;47.73;99839.53;4316644;33;33998;-86
2023/05/09 02:53:21;;;;;;;8.02;4.60;;;;;;;11.15;47.16;99841.56;4302533;33;35649;-87
2023/05/09 02:55:49;;;;;;;7.85;5.03;;;;;;;10.91;47.79;99844.50;4302756;33;33636;-86
2023/05/09 02:58:16;;;;;;;8.23;4.95;;;;;;;10.90;47.85;99841.87;4316317;33;33102;-86
2023/05/09 03:00:44;;;;;;;7.45;5.05;;;;;;;10.85;47.79;99840.91;4303396;33;32646;-88
2023/05/09 03:03:12;;;;;;;8.50;4.40;;;;;;;10.85;47.79;99843.50;4316446;33;34979;-86
2023/05/09 03:05:40;;;;;;;7.97;5.20;;;;;;;10.55;48.53;99843.66;4308175;33;34516;-86
2023/05/09 03:08:07;;;;;;;7.87;5.40;;;;;;;10.57;48.42;99842.88;4316525;33;33382;-86
2023/05/09 03:10:37;;;;;;;7.68;4.75;;;;;;;10.63;48.57;99837.81;4303560;33;34745;-85
2023/05/09 03:13:05;;;;;;;8.13;4.85;;;;;;;10.68;48.39;99840.50;4316058;33;33772;-87
2023/05/09 03:15:32;;;;;;;9.05;5.87;;;;;;;10.47;48.31;99830.50;4316456;33;34300;-86
2023/05/09 03:18:00;;;;;;;8.50;5.50;;;;;;;9.38;50.28;99834.56;4316303;33;33682;-87
2023/05/09 03:20:28;;;;;;;7.82;5.20;;;;;;;9.57;50.44;99833.34;4315992;33;34704;-87
2023/05/09 03:22:56;;;;;;;8.45;5.22;;;;;;;9.81;50.16;99834.03;4316119;33;34092;-87
2023/05/09 03:25:25;;;;;;;8.05;5.12;;;;;;;9.96;49.46;99838.69;4314828;33;34714;-86
2023/05/09 03:27:52;;;;;;;7.57;4.97;;;;;;;10.29;48.76;99840.44;4314749;33;33321;-86
2023/05/09 03:30:20;;;;;;;10.20;5.70;;;;;;;9.87;49.86;99841.94;4315658;33;34363;-85
2023/05/09 03:32:47;;;;;;;8.48;5.15;;;;;;;10.18;49.94;99837.53;4315723;33;34031;-86
2023/05/09 03:35:15;;;;;;;7.68;4.85;;;;;;;10.26;49.37;99835.16;4314512;33;33845;-85
2023/05/09 03:37:43;;;;;;;8.50;5.20;;;;;;;10.16;49.47;99839.22;4315282;33;34395;-88
2023/05/09 03:40:11;;;;;;;7.60;5.47;;;;;;;10.39;49.27;99839.84;4315508;33;33723;-86
2023/05/09 03:42:39;;;;;;;8.40;5.80;;;;;;;10.44;49.17;99840.81;4330315;33;34840;-87
2023/05/09 03:45:07;;;;;;;8.07;5.10;;;;;;;10.37;48.24;99838.91;4318269;33;34523;-87
2023/05/09 03:47:34;;;;;;;6.87;4.90;;;;;;;10.18;49.45;99841.00;4316260;33;32825;-86
2023/05/09 03:50:03;;;;;;;8.02;4.90;;;;;;;10.37;49.08;99847.56;4316057;33;34103;-86
2023/05/09 03:52:31;;;;;;;9.45;4.93;;;;;;;10.29;48.12;99850.81;4315758;33;34175;-86
2023/05/09 03:54:58;;;;;;;8.25;5.28;;;;;;;10.14;48.36;99846.94;4316472;33;34161;-85
2023/05/09 03:57:26;;;;;;;9.07;5.80;;;;;;;10.47;47.83;99841.75;4316047;33;33494;-86
2023/05/09 03:59:54;;;;;;;8.68;5.20;;;;;;;10.73;47.15;99843.22;4316461;33;33725;-86
2023/05/09 04:02:22;;;;;;;8.23;5.32;;;;;;;10.71;47.33;99849.22;4316379;33;33873;-86
2023/05/09 04:04:51;;;;;;;8.05;5.32;;;;;;;10.61;47.94;99843.81;4316269;33;33448;-87
2023/05/09 04:07:19;;;;;;;8.52;5.10;;;;;;;10.55;47.66;99839.34;4302769;33;34603;-86
2023/05/09 04:09:48;;;;;;;9.30;5.22;;;;;;;10.70;47.71;99844.00;4316256;33;33959;-85
2023/05/09 04:12:15;;;;;;;9.38;5.43;;;;;;;10.64;47.72;99849.91;4302826;33;35274;-84
2023/05/09 04:14:44;;;;;;;7.05;4.40;;;;;;;11.03;47.79;99848.22;4315280;33;34841;-86
2023/05/09 04:17:16;;;;;;;7.68;4.78;;;;;;;11.31;46.46;99842.75;4315899;33;34049;-86
2023/05/09 04:19:44;;;;;;;8.40;4.32;;;;;;;11.52;45.51;99855.31;4315831;33;34662;-87
2023/05/09 04:22:11;;;;;;;7.57;4.78;;;;;;;11.25;46.28;99849.53;4315655;33;34081;-86
2023/05/09 04:24:40;;;;;;;6.15;4.15;;;;;;;11.54;45.29;99848.41;4315258;33;34590;-86
2023/05/09 04:27:07;;;;;;;8.18;4.65;;;;;;;11.87;44.51;99837.81;4315920;33;33585;-85
2023/05/09 04:29:35;;;;;;;7.82;4.10;;;;;;;12.24;43.68;99840.19;4315616;33;34079;-88
2023/05/09 04:32:03;;;;;;;8.32;4.65;;;;;;;12.57;43.10;99839.84;4314640;33;34169;-86
2023/05/09 04:34:32;;;;;;;9.93;4.30;;;;;;;12.73;42.70;99841.84;4302175;33;34370;-87
2023/05/09 04:37:00;;;;;;;8.57;4.85;;;;;;;12.65;42.98;99841.72;4316248;33;34728;-85
2023/05/09 04:39:29;;;;;;;8.30;4.75;;;;;;;12.70;42.72;99844.41;4315786;33;33707;-87
2023/05/09 04:41:58;;;;;;;7.35;3.83;;;;;;;12.95;42.03;99845.59;4313865;33;33981;-86
2023/05/09 04:44:25;;;;;;;6.78;4.40;;;;;;;12.97;41.67;99836.09;4314878;33;33490;-87
2023/05/09 04:46:54;;;;;;;8.40;4.20;;;;;;;13.36;41.26;99847.91;4299321;33;33462;-84
2023/05/09 04:49:21;;;;;;;9.98;4.12;;;;;;;13.79;41.05;99843.22;4301184;33;34018;-85
2023/05/09 04:51:49;;;;;;;7.62;4.05;;;;;;;13.85;40.31;99838.06;4314542;33;34845;-89
2023/05/09 04:54:17;;;;;;;7.43;3.58;;;;;;;14.26;39.99;99841.06;4314506;33;33836;-85
2023/05/09 04:56:45;;;;;;;6.45;3.47;;;;;;;14.29;39.26;99840.22;4314949;33;33447;-84
2023/05/09 04:59:14;;;;;;;6.65;4.10;;;;;;;14.47;39.11;99850.81;4315690;33;33444;-86
2023/05/09 05:01:42;;;;;;;8.43;3.83;;;;;;;14.56;38.93;99845.69;4314142;33;34980;-89
2023/05/09 05:04:10;;;;;;;8.63;4.18;;;;;;;14.89;38.95;99849.41;4302754;33;34767;-87
2023/05/09 05:06:37;;;;;;;6.85;3.90;;;;;;;13.83;40.37;99852.81;4313872;33;33835;-86
2023/05/09 05:09:05;;;;;;;9.07;3.78;;;;;;;14.30;39.86;99848.03;4314380;33;33626;-86
2023/05/09 05:11:34;;;;;;;9.85;3.55;;;;;;;14.59;39.40;99853.53;4301457;33;33328;-89
2023/05/09 05:14:02;;;;;;;7.00;3.50;;;;;;;14.16;39.72;99854.00;4301318;33;34042;-86
2023/05/09 05:16:30;;;;;;;6.37;3.40;;;;;;;13.87;40.07;99863.28;4316093;33;33892;-88
2023/05/09 05:18:57;;;;;;;6.28;3.20;;;;;;;13.86;40.38;99860.66;4316328;33;33380;-86
2023/05/09 05:21:25;;;;;;;7.35;3.80;;;;;;;12.97;41.94;99872.53;4304227;33;34538;-86
2023/05/09 05:23:53;;;;;;;6.47;3.47;;;;;;;12.46;42.63;99860.47;4317009;33;33626;-87
2023/05/09 05:26:20;;;;;;;6.93;3.22;;;;;;;12.58;42.83;99865.91;4303540;33;34099;-87
2023/05/09 05:28:48;;;;;;;6.00;3.30;;;;;;;12.84;42.48;99868.00;4314987;33;34746;-88
2023/05/09 05:31:15;;;;;;;6.12;3.80;;;;;;;13.17;42.53;99864.13;4316951;33;35159;-88
2023/05/09 05:33:43;;;;;;;7.68;3.47;;;;;;;13.17;42.38;99871.94;4315367;33;34462;-85
2023/05/09 05:36:11;;;;;;;6.32;3.20;;;;;;;13.42;41.59;99870.59;4316247;33;33075;-88
2023/05/09 05:38:39;;;;;;;6.87;3.65;;;;;;;13.60;40.70;99869.06;4317164;33;34733;-88
2023/05/09 05:41:10;;;;;;;7.82;3.72;;;;;;;13.91;41.07;99866.81;4317200;33;34529;-88
2023/05/09 05:43:37;;;;;;;6.47;3.40;;;;;;;14.23;40.00;99859.28;4315987;33;33586;-88
2023/05/09 05:46:05;;;;;;;5.35;3.22;;;;;;;14.55;39.91;99854.38;4316387;33;33513;-87
2023/05/09 05:48:33;;;;;;;6.87;3.08;;;;;;;14.35;39.33;99854.16;4316871;33;33976;-88
2023/05/09 05:51:01;;;;;;;6.85;3.15;;;;;;;14.97;39.59;99858.16;4317169;33;33632;-88
2023/05/09 05:53:29;;;;;;;6.35;3.92;;;;;;;15.01;38.24;99864.25;4313896;33;33820;-85
2023/05/09 05:55:59;;;;;;;6.53;3.22;;;;;;;14.74;38.53;99864.97;4317299;33;33706;-86
2023/05/09 05:58:26;;;;;;;6.93;3.42;;;;;;;15.06;38.95;99865.16;4316863;33;33587;-88
2023/05/09 06:00:54;;;;;;;5.70;3.33;;;;;;;14.50;39.40;99863.00;4294598;33;34169;-88
2023/05/09 06:03:22;;;;;;;6.18;2.97;;;;;;;13.72;40.55;99868.34;4303169;33;34049;-87
2023/05/09 06:05:50;;;;;;;5.78;3.58;;;;;;;13.39;41.78;99866.19;4315893;33;33388;-87
2023/05/09 06:08:17;;;;;;;5.82;3.47;;;;;;;13.52;41.84;99860.25;4303730;33;34240;-87
2023/05/09 06:10:45;;;;;;;6.70;3.45;;;;;;;13.45;41.14;99858.47;4316849;33;33893;-87
2023/05/09 06:13:12;;;;;;;6.80;3.80;;;;;;;13.34;41.91;99875.69;4313720;33;33938;-85
2023/05/09 06:15:40;;;;;;;6.20;3.35;;;;;;;13.73;41.86;99871.81;4302431;33;34260;-88
2023/05/09 06:18:08;;;;;;;6.53;3.30;;;;;;;13.49;41.61;99870.69;4299121;33;32530;-88
2023/05/09 06:20:35;;;;;;;6.68;3.33;;;;;;;13.51;41.70;99868.94;4302177;33;35002;-88
2023/05/09 06:23:03;;;;;;;13.52;3.05;;;;;;;13.99;42.17;99867.75;4302688;33;33952;-87
2023/05/09 06:25:30;;;;;;;6.62;3.37;;;;;;;14.15;40.71;99860.94;4302575;33;33306;-87
2023/05/09 06:27:58;;;;;;;7.10;3.17;;;;;;;14.04;41.05;99853.00;4300721;33;35344;-86
2023/05/09 06:30:26;;;;;;;8.35;3.37;;;;;;;14.08;41.34;99853.94;4316823;33;33905;-86
2023/05/09 06:32:56;;;;;;;6.65;3.03;;;;;;;14.09;41.17;99851.34;4317017;33;34728;-89
2023/05/09 06:35:24;;;;;;;6.68;3.25;;;;;;;14.59;40.39;99852.66;4315616;33;34273;-87
2023/05/09 06:37:52;;;;;;;7.78;3.15;;;;;;;14.36;40.49;99848.09;4302979;33;34131;-89
2023/05/09 06:40:19;;;;;;;5.40;2.75;;;;;;;14.31;40.27;99846.31;4316283;33;35031;-87
2023/05/09 06:42:47;;;;;;;8.73;4.25;;;;;;;13.73;41.60;99848.34;4304814;33;34061;-87
2023/05/09 06:45:14;;;;;;;7.45;3.42;;;;;;;14.47;40.51;99848.19;4308755;33;33634;-87
2023/05/09 06:47:43;;;;;;;7.72;3.37;;;;;;;15.13;40.03;99842.56;4313043;33;33670;-88
2023/05/09 06:50:10;;;;;;;8.60;2.60;;;;;;;15.51;39.61;99840.97;4312004;33;34989;-89
2023/05/09 06:52:37;;;;;;;6.15;3.00;;;;;;;15.47;38.40;99844.44;4317052;33;34013;-88
2023/05/09 06:55:06;;;;;;;8.13;3.25;;;;;;;15.21;38.44;99846.06;4316603;33;34904;-89
2023/05/09 06:57:33;;;;;;;6.90;3.08;;;;;;;15.55;38.55;99834.88;4301833;33;33883;-89
2023/05/09 07:00:20;;;;;;;9.27;3.00;;;;;;;15.94;38.84;99832.41;4305759;33;34928;-86
2023/05/09 07:02:48;;;;;;;6.28;3.12;;;;;;;16.05;38.32;99828.94;4316759;33;34661;-87
2023/05/09 07:05:15;;;;;;;5.78;2.90;;;;;;;15.80;37.64;99822.81;4315982;33;33128;-85
2023/05/09 07:07:43;;;;;;;7.93;2.42;;;;;;;16.24;37.67;99826.34;4306132;33;34927;-86
2023/05/09 07:10:11;;;;;;;4.90;2.67;;;;;;;16.13;38.84;99825.44;4316369;33;32381;-86
2023/05/09 07:12:40;;;;;;;7.93;2.60;;;;;;;16.35;37.70;99827.22;4302820;33;35160;-86
2023/05/09 07:15:08;;;;;;;6.50;2.15;;;;;;;16.45;37.18;99825.47;4303402;33;33609;-90
2023/05/09 07:17:36;;;;;;;5.40;2.17;;;;;;;16.78;36.28;99828.09;4316686;33;33971;-84
2023/05/09 07:20:05;;;;;;;5.15;1.80;;;;;;;16.20;37.63;99820.22;4315879;33;33795;-86
2023/05/09 07:22:32;;;;;;;4.90;1.90;;;;;;;16.44;37.25;99816.75;4316752;33;33975;-88
2023/05/09 07:25:09;;;;;;;3.70;1.70;;;;;;;17.19;37.11;99808.75;4315531;33;33501;-84
2023/05/09 07:27:36;;;;;;;4.47;1.62;;;;;;;16.79;37.15;99810.63;4306242;33;34010;-90
2023/05/09 07:30:05;;;;;;;3.95;1.87;;;;;;;16.94;35.74;99813.22;4303202;33;34327;-87
2023/05/09 07:32:33;;;;;;;3.92;1.33;;;;;;;17.22;36.66;99803.50;4316794;33;34862;-86
2023/05/09 07:35:01;;;;;;;3.67;1.45;;;;;;;16.75;36.74;99809.75;4290299;33;34094;-89
2023/05/09 07:37:30;;;;;;;3.17;1.40;;;;;;;16.88;36.89;99810.59;4316718;33;33842;-89
2023/05/09 07:39:58;;;;;;;9.40;1.70;;;;;;;17.39;37.05;99800.81;4316040;33;34051;-87
2023/05/09 07:42:25;;;;;;;5.53;1.60;;;;;;;17.46;35.80;99797.28;4316552;33;34333;-89
2023/05/09 07:44:53;;;;;;;4.45;1.50;;;;;;;16.93;35.49;99801.00;4316200;33;34127;-89
2023/05/09 07:47:20;;;;;;;6.43;1.90;;;;;;;16.99;36.80;99800.94;4316791;33;33513;-89
2023/05/09 07:49:48;;;;;;;3.70;1.40;;;;;;;17.24;36.02;99793.88;4316306;33;33958;-88
2023/05/09 07:52:16;;;;;;;4.40;1.75;;;;;;;16.90;35.81;99797.50;4315565;33;34843;-90
2023/05/09 07:54:43;;;;;;;10.23;2.20;;;;;;;16.39;36.64;99800.16;4316266;33;33523;-87
2023/05/09 07:57:11;;;;;;;3.85;1.40;;;;;;;16.53;37.17;99789.69;4316102;33;34099;-87
2023/05/09 07:59:39;;;;;;;7.00;2.00;;;;;;;17.28;36.57;99792.12;4316464;33;34987;-87
2023/05/09 08:02:07;;;;;;;7.07;2.03;;;;;;;17.88;36.03;99782.19;4315257;33;33832;-88
2023/05/09 08:04:37;;;;;;;4.75;1.70;;;;;;;18.12;35.03;99782.91;4316360;33;33220;-87
2023/05/09 08:07:06;;;;;;;2.97;1.48;;;;;;;17.61;35.84;99769.22;4303516;33;33812;-90
2023/05/09 08:09:33;;;;;;;4.12;1.52;;;;;;;17.80;34.88;99780.50;4314423;33;35236;-90
2023/05/09 08:12:01;;;;;;;3.78;1.30;;;;;;;17.99;35.43;99777.75;4312118;33;34081;-89
2023/05/09 08:14:29;;;;;;;7.03;1.85;;;;;;;17.01;35.72;99773.03;4315882;33;34226;-89
2023/05/09 08:16:56;;;;;;;5.18;1.70;;;;;;;17.34;35.27;99778.97;4315080;33;34093;-89
2023/05/09 08:19:24;;;;;;;4.53;1.40;;;;;;;16.77;35.94;99783.56;4315127;33;35055;-89
2023/05/09 08:21:52;;;;;;;3.80;1.70;;;;;;;17.10;35.74;99768.62;4303057;33;34785;-87
2023/05/09 08:24:20;;;;;;;4.07;1.50;;;;;;;17.34;35.88;99771.13;4322232;33;33738;-88
2023/05/09 08:26:48;;;;;;;5.28;1.42;;;;;;;17.71;36.27;99749.94;4330806;33;33582;-90
2023/05/09 08:29:16;;;;;;;3.60;1.60;;;;;;;18.06;35.52;99761.94;4321097;33;34254;-87
2023/05/09 08:31:43;;;;;;;4.43;1.58;;;;;;;18.24;34.03;99756.53;4315431;33;33801;-87
2023/05/09 08:34:11;;;;;;;3.67;1.35;;;;;;;18.45;34.94;99761.59;4287753;33;32700;-88
2023/05/09 08:36:39;;;;;;;4.68;1.27;;;;;;;18.07;34.11;99767.19;4315218;33;34198;-87
2023/05/09 08:39:08;;;;;;;5.28;1.42;;;;;;;17.66;34.20;99764.84;4318921;33;34130;-89
2023/05/09 08:41:37;;;;;;;5.32;1.30;;;;;;;17.88;34.59;99761.22;4315948;33;34128;-87
2023/05/09 08:44:05;;;;;;;3.80;1.45;;;;;;;17.62;35.02;99752.62;4302145;33;32352;-90
2023/05/09 08:46:38;;;;;;;3.62;1.77;;;;;;;18.01;34.31;99761.12;4302552;33;33633;-90
2023/05/09 08:49:07;;;;;;;2.85;1.23;;;;;;;18.06;34.13;99760.19;4300972;33;33480;-87
2023/05/09 08:51:40;;;;;;;12.25;2.12;;;;;;;17.72;36.32;99756.91;4307959;33;34075;-89
2023/05/09 08:54:11;;;;;;;6.18;1.42;;;;;;;18.24;33.85;99748.66;4317355;33;33141;-86
2023/05/09 08:56:39;;;;;;;7.30;2.20;;;;;;;18.22;35.22;99758.28;4308607;33;34820;-89
2023/05/09 08:59:08;;;;;;;4.35;1.80;;;;;;;18.62;33.87;99758.78;4302255;33;34201;-89
2023/05/09 09:01:35;;;;;;;7.70;3.15;;;;;;;18.32;33.25;99743.34;4302213;33;33992;-86
2023/05/09 09:04:07;;;;;;;3.80;1.23;;;;;;;18.40;33.42;99747.63;4315433;33;34284;-89
2023/05/09 09:06:35;;;;;;;4.60;1.50;;;;;;;18.74;33.96;99747.31;4315599;33;32589;-88
2023/05/09 09:09:07;;;;;;;7.03;1.02;;;;;;;19.19;32.60;99734.50;4315622;33;34247;-86
2023/05/09 09:11:36;;;;;;;4.82;1.05;;;;;;;19.32;32.33;99740.47;4314858;33;34968;-88
2023/05/09 09:14:12;;;;;;;5.55;1.52;;;;;;;18.82;32.84;99737.59;4314681;33;33487;-87
2023/05/09 09:16:41;;;;;;;2.92;0.88;;;;;;;19.18;32.77;99730.16;4303021;33;33512;-85
2023/05/09 09:19:12;;;;;;;3.25;1.00;;;;;;;19.18;32.52;99731.00;4321870;33;34287;-86
2023/05/09 09:21:41;;;;;;;2.92;1.17;;;;;;;19.41;31.44;99728.06;4292035;33;33760;-87
2023/05/09 09:24:11;;;;;;;5.68;1.83;;;;;;;18.21;33.46;99732.94;4313088;33;33632;-89
2023/05/09 09:26:46;;;;;;;3.80;1.20;;;;;;;18.72;33.48;99743.84;4315134;33;34720;-89
2023/05/09 09:29:15;;;;;;;3.45;0.90;;;;;;;18.40;32.39;99731.88;4315081;33;33761;-88
2023/05/09 09:31:44;;;;;;;8.23;1.20;;;;;;;18.31;33.65;99737.22;4312140;33;33609;-91
2023/05/09 09:34:19;;;;;;;6.97;1.50;;;;;;;18.22;34.07;99730.31;4289447;33;32205;-89
2023/05/09 09:36:49;;;;;;;5.18;1.30;;;;;;;18.39;33.22;99734.53;4300691;33;33958;-88
2023/05/09 09:39:17;;;;;;;2.78;1.00;;;;;;;18.84;33.38;99727.94;4287952;33;34156;-90
2023/05/09 09:41:44;;;;;;;3.25;1.00;;;;;;;19.57;32.56;99725.22;4300885;33;34181;-89
2023/05/09 09:44:14;;;;;;;2.20;1.15;;;;;;;18.58;32.26;99730.81;4315230;33;33368;-87
2023/05/09 09:46:46;;;;;;;1.60;0.80;;;;;;;18.78;32.54;99724.50;4320733;33;33693;-88
2023/05/09 09:49:15;;;;;;;2.95;0.90;;;;;;;18.62;31.95;99729.91;4315233;33;33951;-88
2023/05/09 09:51:43;;;;;;;1.77;0.80;;;;;;;19.00;31.24;99722.50;4288087;33;33156;-87
2023/05/09 09:54:11;;;;;;;2.08;0.90;;;;;;;18.83;31.94;99718.31;4309222;33;33194;-87
2023/05/09 09:56:40;;;;;;;7.72;0.95;;;;;;;18.48;31.47;99727.41;4306328;33;34038;-87
2023/05/09 09:59:17;;;;;;;4.32;0.95;;;;;;;18.87;31.51;99717.41;4315042;33;35018;-86
2023/05/09 10:01:55;;;;;;;3.75;1.23;;;;;;;18.66;31.72;99728.13;4315109;33;34271;-88
2023/05/09 10:04:24;;;;;;;2.58;0.90;;;;;;;19.21;30.86;99706.47;4303640;33;34430;-89
2023/05/09 10:07:11;;;;;;;1.80;0.77;;;;;;;18.91;30.83;99708.59;4317028;33;34851;-88
2023/05/09 10:09:42;;;;;;;2.62;1.05;;;;;;;19.34;31.40;99702.75;4315209;33;34173;-88
2023/05/09 10:12:10;;;;;;;2.40;1.08;;;;;;;19.12;30.54;99707.44;4316852;33;34862;-87
2023/05/09 10:14:41;;;;;;;1.98;0.90;;;;;;;18.57;31.29;99712.47;4303993;33;33555;-88
2023/05/09 10:17:10;;;;;;;2.08;0.80;;;;;;;18.63;31.28;99701.88;4302362;33;33941;-87
2023/05/09 10:19:43;;;;;;;7.45;1.10;;;;;;;18.86;31.54;99702.50;4302414;33;33849;-88
2023/05/09 10:22:12;;;;;;;3.47;0.98;;;;;;;18.91;32.49;99705.97;4314763;33;34096;-89
2023/05/09 10:24:47;;;;;;;1.83;0.75;;;;;;;18.75;31.69;99707.00;4319700;33;33236;-90
2023/05/09 10:27:18;;;;;;;5.25;1.23;;;;;;;18.83;32.27;99699.06;4317330;33;34395;-88
2023/05/09 10:29:51;;;;;;;4.20;1.05;;;;;;;19.16;32.31;99692.50;4303628;33;34968;-88
2023/05/09 10:32:38;;;;;;;3.10;1.00;;;;;;;18.98;31.55;99690.09;4316648;33;34663;-88
2023/05/09 10:35:07;;;;;;;2.62;1.05;;;;;;;19.63;30.87;99683.09;4303759;33;33846;-88
2023/05/09 10:37:35;;;;;;;2.15;0.85;;;;;;;19.63;31.66;99683.09;4303750;33;33984;-88
2023/05/09 10:40:04;;;;;;;2.40;0.80;;;;;;;18.44;31.57;99696.81;4317207;33;34035;-88
2023/05/09 10:42:31;;;;;;;3.58;1.15;;;;;;;18.26;31.56;99693.53;4303565;33;34851;-88
2023/05/09 10:44:59;;;;;;;3.85;1.12;;;;;;;18.82;31.71;99694.69;4316923;33;33521;-88
2023/05/09 10:47:27;;;;;;;1.67;0.90;;;;;;;18.45;31.92;99703.84;4316771;33;33686;-88
2023/05/09 10:49:55;;;;;;;4.70;0.90;;;;;;;18.98;30.23;99683.13;4303520;33;35009;-88
2023/05/09 10:52:23;;;;;;;4.18;1.00;;;;;;;19.20;31.51;99697.66;4303896;33;34167;-88
2023/05/09 11:25:48;;;;;;;2.33;1.00;;;;;;;19.50;30.22;99668.34;4851280;28;20056;-93
2023/05/09 11:28:28;;;;;;;1.80;0.88;;;;;;;19.90;31.88;99656.31;4303886;33;33657;-89
2023/05/09 11:31:22;;;;;;;3.53;0.90;;;;;;;19.86;29.55;99664.28;4303037;33;33461;-89
2023/05/09 11:34:05;;;;;;;3.92;1.37;;;;;;;19.23;29.52;99664.38;4315978;33;34644;-89
2023/05/09 11:36:41;;;;;;;4.00;1.20;;;;;;;18.66;31.58;99655.44;4303703;33;33737;-93
2023/05/09 11:39:23;;;;;;;3.75;1.17;;;;;;;19.00;32.22;99654.19;4314859;33;33441;-89
2023/05/09 11:41:52;;;;;;;2.47;1.17;;;;;;;20.13;30.20;99652.41;4302532;33;34031;-94
2023/05/09 11:44:21;;;;;;;2.35;1.00;;;;;;;20.44;30.50;99641.28;4303416;33;35289;-94
2023/05/09 11:47:10;;;;;;;4.43;1.30;;;;;;;19.58;30.45;99648.03;4303595;33;34371;-89
2023/05/09 11:49:44;;;;;;;2.92;1.08;;;;;;;20.11;31.12;99647.12;4303535;33;33968;-94
2023/05/09 11:52:12;;;;;;;3.50;1.08;;;;;;;20.28;31.60;99645.97;4290774;33;33387;-94
2023/05/09 11:55:09;;;;;;;6.70;1.50;;;;;;;20.39;30.40;99650.13;4301742;33;33495;-88
2023/05/09 11:57:54;;;;;;;6.03;1.37;;;;;;;19.32;31.23;99651.97;4303866;33;33685;-93
2023/05/09 12:00:28;;;;;;;2.78;1.05;;;;;;;19.62;30.81;99639.22;4303006;33;34103;-90
2023/05/09 12:03:04;;;;;;;2.95;1.30;;;;;;;19.36;30.99;99639.66;4303225;33;33474;-89
2023/05/09 12:05:41;;;;;;;2.40;1.02;;;;;;;18.83;31.25;99636.91;4302889;33;33218;-93
2023/05/09 12:08:17;;;;;;;2.85;1.25;;;;;;;19.50;32.74;99629.75;4303011;33;34399;-91
2023/05/09 12:10:46;;;;;;;2.95;1.25;;;;;;;19.59;31.18;99624.38;4303403;33;33922;-89
2023/05/09 12:13:22;;;;;;;2.25;1.10;;;;;;;18.95;31.14;99627.97;4303832;33;32811;-91
2023/05/09 12:15:59;;;;;;;2.95;1.08;;;;;;;19.15;32.38;99625.06;4301372;33;34349;-92